Freetown, Kentucky
Current Conditions -  °F | °C
As of 10:15 AM on Thursday 18 Dec 2014 (Local Time) from KGLW Reporting Station
Overcast Overcast  
Wind Chill: 32°   Ceiling: 4600
Heat Index: 32°   Visibility: 7mi
Dew Point: 28°   Wind: 3mph
Humidity: 83%   Direction: 30°NNE
Pressure: 30.26"   Gusts: NA
Location:  36.6549°N, 85.8315°W
Report Text: KGLW 181615Z AUTO 03003KT 7SM SCT011 OVC046 00/M02 A3026 RMK AO2 T00011025
Loading
Personal Weather Stations






























Interactive Weather Map New forecast layout! Learn more

10-Day Weather Forecast

Advertisements
Track Severe Weather on mobile